Time;durP1;ratioP1;P1;durP2;ratioP2;P2;SDS_P1;SDS_P2;PMS_P1;PMS_P2;Temp;Humidity;BMP_temperature;BMP_pressure;BME280_temperature;BME280_humidity;BME280_pressure;Samples;Min_cycle;Max_cycle;Signal;HPM_P1;HPM_P2
2022/09/12 00:00:34;;;;;;;9.67;6.97;;;;;;;13.09;100.00;98755.06;4961905;28;20244;-52
2022/09/12 00:03:01;;;;;;;8.10;7.00;;;;;;;13.08;100.00;98763.09;4957678;28;20230;-54
2022/09/12 00:05:28;;;;;;;7.93;6.97;;;;;;;13.08;100.00;98755.22;4960915;28;20293;-50
2022/09/12 00:07:54;;;;;;;15.67;7.10;;;;;;;13.08;100.00;98756.03;4957423;28;20290;-51
2022/09/12 00:10:21;;;;;;;10.37;6.83;;;;;;;13.05;100.00;98748.50;4960120;28;20872;-53
2022/09/12 00:12:47;;;;;;;12.67;7.27;;;;;;;12.96;100.00;98752.94;4960151;28;20998;-50
2022/09/12 00:15:14;;;;;;;14.37;7.37;;;;;;;13.03;100.00;98754.91;4958395;28;20248;-52
2022/09/12 00:17:42;;;;;;;10.50;6.67;;;;;;;12.97;100.00;98749.34;4962187;28;20270;-53
2022/09/12 00:20:10;;;;;;;11.60;7.03;;;;;;;12.87;100.00;98755.69;4962903;28;20552;-50
2022/09/12 00:22:37;;;;;;;8.40;6.97;;;;;;;12.82;100.00;98746.53;4955188;28;20261;-53
2022/09/12 00:25:05;;;;;;;8.43;6.60;;;;;;;12.77;100.00;98756.66;4947271;28;20725;-53
2022/09/12 00:27:31;;;;;;;11.17;6.73;;;;;;;12.75;100.00;98747.34;4953198;28;20238;-51
2022/09/12 00:29:58;;;;;;;7.87;6.87;;;;;;;12.70;100.00;98740.00;4954341;28;20312;-51
2022/09/12 00:32:25;;;;;;;7.83;6.60;;;;;;;12.66;100.00;98742.09;4958097;28;20234;-51
2022/09/12 00:34:52;;;;;;;8.90;6.83;;;;;;;12.69;100.00;98740.97;4961678;28;20245;-51
2022/09/12 00:37:19;;;;;;;9.27;7.27;;;;;;;12.70;100.00;98740.78;4958263;28;20293;-50
2022/09/12 00:39:46;;;;;;;12.67;7.23;;;;;;;12.70;100.00;98742.59;4957159;28;20241;-50
2022/09/12 00:42:13;;;;;;;9.20;7.40;;;;;;;12.66;100.00;98734.25;4957066;28;20264;-51
2022/09/12 00:44:51;;;;;;;7.73;6.73;;;;;;;12.72;100.00;98740.63;4964118;28;20236;-50
2022/09/12 00:47:23;;;;;;;8.07;7.27;;;;;;;12.66;100.00;98729.00;4954368;28;20240;-50
2022/09/12 00:49:55;;;;;;;11.67;6.80;;;;;;;12.76;100.00;98731.44;4963380;28;20313;-51
2022/09/12 00:52:27;;;;;;;9.27;7.13;;;;;;;12.70;100.00;98729.50;4959714;28;20304;-50
2022/09/12 00:54:59;;;;;;;11.10;7.17;;;;;;;12.75;100.00;98729.81;4962931;28;20604;-49
2022/09/12 00:57:32;;;;;;;11.50;7.17;;;;;;;12.72;100.00;98721.47;4966588;28;20225;-51
2022/09/12 01:00:02;;;;;;;8.70;6.70;;;;;;;12.64;100.00;98719.69;4963657;28;20233;-49
2022/09/12 01:02:29;;;;;;;8.90;6.93;;;;;;;12.61;100.00;98720.81;4966217;28;20294;-49
2022/09/12 01:04:57;;;;;;;8.77;6.57;;;;;;;12.60;100.00;98713.94;4963626;28;20222;-50
2022/09/12 01:07:24;;;;;;;8.17;6.53;;;;;;;12.55;100.00;98716.22;4966632;28;20234;-50
2022/09/12 01:09:51;;;;;;;9.23;7.03;;;;;;;12.58;100.00;98715.09;4966519;28;20237;-51
2022/09/12 01:12:18;;;;;;;7.10;6.37;;;;;;;12.57;100.00;98705.59;4964349;28;20682;-50
2022/09/12 01:14:44;;;;;;;8.60;6.30;;;;;;;12.57;100.00;98703.78;4966415;28;20691;-49
2022/09/12 01:17:13;;;;;;;10.97;6.53;;;;;;;12.60;100.00;98703.47;4963844;28;20243;-49
2022/09/12 01:20:25;;;;;;;6.80;6.10;;;;;;;12.58;100.00;98702.00;4966707;28;20234;-49
2022/09/12 01:23:17;;;;;;;7.10;6.23;;;;;;;12.53;100.00;98698.06;4964149;28;20257;-49
2022/09/12 01:26:00;;;;;;;9.97;6.57;;;;;;;12.52;100.00;98700.81;4964315;28;20312;-49
2022/09/12 01:28:49;;;;;;;7.60;6.03;;;;;;;12.59;100.00;98691.34;4967543;28;20221;-52
2022/09/12 01:31:21;;;;;;;9.03;6.50;;;;;;;12.64;100.00;98686.44;4967638;28;20228;-52
2022/09/12 01:34:00;;;;;;;7.53;6.07;;;;;;;12.70;99.92;98688.41;4970027;28;20244;-52
2022/09/12 01:36:38;;;;;;;7.10;5.90;;;;;;;12.79;99.21;98688.41;4967948;28;20248;-52
2022/09/12 01:39:09;;;;;;;9.77;6.13;;;;;;;12.78;99.49;98697.25;4967482;28;20604;-52
2022/09/12 01:41:48;;;;;;;7.20;5.93;;;;;;;12.82;99.64;98696.75;4970167;28;20244;-49
2022/09/12 01:44:26;;;;;;;7.60;6.40;;;;;;;12.88;98.96;98691.84;4966538;28;20660;-48
2022/09/12 01:46:57;;;;;;;9.13;6.68;;;;;;;12.97;98.56;98685.63;4966796;28;20505;-53
2022/09/12 01:49:29;;;;;;;9.17;5.83;;;;;;;13.07;97.71;98690.72;4970112;28;20332;-50
2022/09/12 01:52:03;;;;;;;6.43;5.80;;;;;;;13.10;96.49;98688.56;4967088;28;20241;-50
2022/09/12 01:54:37;;;;;;;7.13;5.77;;;;;;;13.14;96.15;98691.69;4969564;28;20242;-50
2022/09/12 01:57:10;;;;;;;6.27;5.37;;;;;;;13.16;96.00;98686.25;4967169;28;20237;-50
2022/09/12 01:59:41;;;;;;;8.03;5.63;;;;;;;13.13;95.93;98696.09;4969963;28;20233;-52
2022/09/12 02:02:33;;;;;;;11.63;5.03;;;;;;;13.13;96.15;98688.22;4967467;28;20248;-51
2022/09/12 02:05:05;;;;;;;8.17;5.00;;;;;;;13.13;95.75;98687.44;4966731;28;20236;-50
2022/09/12 02:07:38;;;;;;;6.47;5.87;;;;;;;13.09;95.80;98688.75;4970042;28;20235;-50
2022/09/12 02:10:10;;;;;;;6.37;5.30;;;;;;;13.08;96.17;98680.03;4966849;28;20699;-50
2022/09/12 02:12:43;;;;;;;6.47;5.10;;;;;;;13.06;95.96;98670.72;4969613;28;20234;-50
2022/09/12 02:15:12;;;;;;;5.90;5.30;;;;;;;13.05;96.53;98672.50;4966785;28;20277;-52
2022/09/12 02:17:43;;;;;;;7.87;5.53;;;;;;;12.98;96.73;98661.88;4969522;28;20238;-50
2022/09/12 02:20:14;;;;;;;7.23;5.37;;;;;;;12.97;97.27;98673.34;4966629;28;20431;-50
2022/09/12 02:22:44;;;;;;;6.20;5.60;;;;;;;12.97;97.25;98669.91;4969210;28;20285;-50
2022/09/12 02:25:14;;;;;;;7.00;5.40;;;;;;;12.95;97.22;98667.47;4966139;28;20273;-50
2022/09/12 02:27:45;;;;;;;5.83;5.20;;;;;;;12.99;96.70;98673.16;4969349;28;20229;-49
2022/09/12 02:30:15;;;;;;;6.23;5.30;;;;;;;12.97;96.81;98668.13;4966541;28;20237;-50
2022/09/12 02:32:54;;;;;;;7.03;4.87;;;;;;;12.95;97.05;98666.63;4969338;28;20225;-50
2022/09/12 02:35:30;;;;;;;6.40;5.07;;;;;;;12.96;97.25;98666.47;4966981;28;20594;-50
2022/09/12 02:38:02;;;;;;;9.73;5.30;;;;;;;12.94;97.35;98662.38;4966427;28;20296;-50
2022/09/12 02:40:29;;;;;;;6.83;5.50;;;;;;;12.96;99.22;98669.09;4969426;28;20320;-50
2022/09/12 02:42:56;;;;;;;5.40;4.90;;;;;;;12.90;99.28;98667.13;4966268;28;20234;-50
2022/09/12 02:45:23;;;;;;;5.83;5.00;;;;;;;12.84;100.00;98662.56;4969387;28;20250;-50
2022/09/12 02:47:56;;;;;;;8.27;5.13;;;;;;;12.78;100.00;98664.00;4968972;28;20559;-49
2022/09/12 02:50:22;;;;;;;5.90;5.27;;;;;;;12.72;100.00;98661.25;4966451;28;20312;-50
2022/09/12 02:52:52;;;;;;;6.17;4.97;;;;;;;12.68;100.00;98663.38;4968670;28;20240;-50
2022/09/12 02:55:19;;;;;;;6.30;4.53;;;;;;;12.66;100.00;98653.06;4966314;28;20320;-52
2022/09/12 02:57:46;;;;;;;7.50;4.90;;;;;;;12.61;100.00;98657.16;4960967;28;20226;-50
2022/09/12 03:00:14;;;;;;;5.00;4.10;;;;;;;12.55;100.00;98659.44;4946761;28;20235;-50
2022/09/12 03:05:29;;;;;;;8.13;4.60;;;;;;;12.53;100.00;98644.88;4986224;23;20277;-50
2022/09/12 03:08:16;;;;;;;6.47;4.97;;;;;;;12.48;100.00;98653.22;4935985;29;20283;-50
2022/09/12 03:11:02;;;;;;;5.70;4.73;;;;;;;12.43;100.00;98654.66;4938912;29;20250;-50
2022/09/12 03:13:38;;;;;;;9.30;4.80;;;;;;;12.35;100.00;98652.88;4934944;29;20242;-50
2022/09/12 03:16:16;;;;;;;6.60;4.67;;;;;;;12.28;100.00;98657.13;4935130;29;20225;-50
2022/09/12 03:18:55;;;;;;;6.90;5.13;;;;;;;12.25;100.00;98656.47;4938718;29;20234;-50
2022/09/12 03:21:29;;;;;;;6.07;5.23;;;;;;;12.24;100.00;98657.44;4934605;29;20704;-50
2022/09/12 03:24:07;;;;;;;7.07;4.57;;;;;;;12.20;100.00;98658.72;4936046;28;20256;-50
2022/09/12 03:26:41;;;;;;;6.73;4.30;;;;;;;12.16;100.00;98657.41;4939462;29;20230;-50
2022/09/12 03:29:28;;;;;;;8.67;4.90;;;;;;;12.19;100.00;98656.28;4933076;29;20226;-51
2022/09/12 03:31:57;;;;;;;9.87;5.63;;;;;;;12.11;100.00;98654.47;4936673;29;20237;-49
2022/09/12 03:34:26;;;;;;;6.53;4.73;;;;;;;12.08;100.00;98654.78;4938223;29;20231;-49
2022/09/12 03:36:55;;;;;;;9.77;5.10;;;;;;;12.15;100.00;98658.41;4937408;29;20331;-50
2022/09/12 03:39:23;;;;;;;6.67;5.10;;;;;;;12.06;100.00;98656.72;4937708;29;20226;-49
2022/09/12 03:41:50;;;;;;;7.33;5.60;;;;;;;12.01;100.00;98652.00;4938979;29;20628;-51
2022/09/12 03:44:16;;;;;;;5.60;4.97;;;;;;;12.00;100.00;98649.53;4935366;28;20245;-49
2022/09/12 03:47:01;;;;;;;7.35;5.32;;;;;;;12.05;100.00;98650.69;4933057;29;20455;-49
2022/09/12 03:49:28;;;;;;;7.07;4.87;;;;;;;12.01;100.00;98648.53;4938986;28;20247;-50
2022/09/12 03:51:56;;;;;;;6.33;4.73;;;;;;;11.97;100.00;98658.50;4936187;29;20258;-50
2022/09/12 03:54:23;;;;;;;5.60;4.80;;;;;;;11.93;100.00;98644.91;4935794;29;20242;-50
2022/09/12 03:56:49;;;;;;;8.00;4.87;;;;;;;11.90;100.00;98647.81;4937963;29;20276;-50
2022/09/12 03:59:16;;;;;;;5.93;5.20;;;;;;;11.88;100.00;98657.63;4938317;28;20242;-50
2022/09/12 04:01:43;;;;;;;5.97;4.50;;;;;;;11.91;100.00;98652.09;4938959;28;20339;-50
2022/09/12 04:04:09;;;;;;;6.97;4.20;;;;;;;11.91;100.00;98659.13;4937212;28;20308;-49
2022/09/12 04:06:36;;;;;;;6.27;4.43;;;;;;;11.91;100.00;98661.75;4941214;29;20292;-50
2022/09/12 04:09:04;;;;;;;7.00;4.60;;;;;;;11.87;100.00;98653.38;4935830;28;20685;-49
2022/09/12 04:11:31;;;;;;;9.43;4.97;;;;;;;11.83;100.00;98654.66;4934809;29;20257;-49
2022/09/12 04:13:57;;;;;;;5.90;4.23;;;;;;;11.77;100.00;98647.44;4934056;28;20230;-49
2022/09/12 04:16:24;;;;;;;6.93;4.90;;;;;;;11.73;100.00;98643.50;4936886;29;20772;-49
2022/09/12 04:18:51;;;;;;;7.00;4.50;;;;;;;11.61;100.00;98646.44;4939011;28;20372;-50
2022/09/12 04:21:20;;;;;;;5.27;4.77;;;;;;;11.56;100.00;98646.09;4937960;29;20685;-49
2022/09/12 04:23:47;;;;;;;6.70;4.13;;;;;;;11.55;100.00;98641.00;4940935;29;20240;-50
2022/09/12 04:26:16;;;;;;;8.87;4.40;;;;;;;11.49;100.00;98642.47;4937598;29;20237;-50
2022/09/12 04:28:44;;;;;;;8.90;4.50;;;;;;;11.42;100.00;98642.25;4937259;29;20723;-49
2022/09/12 04:31:14;;;;;;;15.80;4.50;;;;;;;11.44;100.00;98642.91;4937545;29;20237;-50
2022/09/12 04:33:41;;;;;;;11.57;4.73;;;;;;;11.36;100.00;98642.88;4938198;28;20243;-50
2022/09/12 04:36:10;;;;;;;7.07;4.70;;;;;;;11.35;100.00;98642.06;4935644;28;20236;-49
2022/09/12 04:38:38;;;;;;;6.77;4.80;;;;;;;11.28;100.00;98642.81;4936280;29;20352;-52
2022/09/12 04:41:11;;;;;;;5.00;4.50;;;;;;;11.28;100.00;98650.66;4935258;28;20647;-50
2022/09/12 04:43:38;;;;;;;5.53;4.20;;;;;;;11.23;100.00;98640.69;4934362;29;20233;-50
2022/09/12 04:46:06;;;;;;;5.07;4.17;;;;;;;11.18;100.00;98648.97;4933676;29;20238;-50
2022/09/12 04:48:33;;;;;;;8.50;5.38;;;;;;;11.23;100.00;98648.53;4935409;29;20452;-51
2022/09/12 04:51:07;;;;;;;9.00;4.47;;;;;;;11.17;100.00;98647.31;4930609;29;20231;-52
2022/09/12 04:53:35;;;;;;;5.20;3.73;;;;;;;11.15;100.00;98644.06;4935854;29;20644;-53
2022/09/12 04:56:03;;;;;;;6.07;4.40;;;;;;;11.14;100.00;98649.44;4937311;28;20240;-50
2022/09/12 04:58:32;;;;;;;9.03;4.40;;;;;;;11.17;100.00;98643.91;4936770;29;20352;-53
2022/09/12 05:01:05;;;;;;;6.50;4.07;;;;;;;11.11;100.00;98647.13;4933378;29;20701;-49
2022/09/12 05:03:32;;;;;;;7.90;5.67;;;;;;;11.11;100.00;98647.97;4940378;28;20256;-50
2022/09/12 05:05:59;;;;;;;6.63;4.10;;;;;;;11.13;100.00;98648.63;4938214;29;20390;-50
2022/09/12 05:08:25;;;;;;;7.03;4.23;;;;;;;11.16;100.00;98639.66;4940444;29;20693;-50
2022/09/12 05:10:52;;;;;;;6.13;4.03;;;;;;;11.16;100.00;98643.09;4944195;29;20257;-49
2022/09/12 05:13:18;;;;;;;5.77;4.33;;;;;;;11.19;100.00;98644.56;4938729;28;20248;-49
2022/09/12 05:15:54;;;;;;;5.80;3.63;;;;;;;11.23;100.00;98640.69;4943067;29;20249;-50
2022/09/12 05:18:22;;;;;;;6.70;4.13;;;;;;;11.25;100.00;98651.81;4940611;29;20318;-49
2022/09/12 05:20:49;;;;;;;5.43;4.03;;;;;;;11.20;100.00;98648.84;4944646;29;20236;-50
2022/09/12 05:23:16;;;;;;;5.83;4.23;;;;;;;11.22;100.00;98652.09;4939147;28;20237;-49
2022/09/12 05:25:48;;;;;;;7.07;4.83;;;;;;;11.25;100.00;98654.41;4943096;28;20682;-49
2022/09/12 05:28:15;;;;;;;7.60;4.00;;;;;;;11.25;100.00;98649.19;4939346;29;20245;-49
2022/09/12 05:30:41;;;;;;;5.70;4.57;;;;;;;11.29;100.00;98655.75;4939787;29;20268;-49
2022/09/12 05:33:08;;;;;;;8.37;4.23;;;;;;;11.33;100.00;98654.47;4933537;28;20236;-50
2022/09/12 05:35:37;;;;;;;7.87;4.40;;;;;;;11.36;100.00;98658.53;4941513;29;20326;-49
2022/09/12 05:38:05;;;;;;;4.97;4.47;;;;;;;11.41;100.00;98647.66;4940720;28;20244;-49
2022/09/12 05:40:31;;;;;;;7.37;4.93;;;;;;;11.43;100.00;98650.91;4941990;29;20337;-49
2022/09/12 05:42:58;;;;;;;6.60;4.27;;;;;;;11.55;100.00;98659.31;4940089;28;20235;-49
2022/09/12 05:45:25;;;;;;;9.47;5.37;;;;;;;11.59;100.00;98664.06;4939473;29;20234;-49
2022/09/12 05:47:52;;;;;;;5.20;4.33;;;;;;;11.62;100.00;98662.94;4940749;29;20279;-50
2022/09/12 05:50:20;;;;;;;7.87;4.80;;;;;;;11.66;100.00;98661.63;4938668;28;20320;-50
2022/09/12 05:52:48;;;;;;;9.27;4.60;;;;;;;11.69;100.00;98663.94;4942689;28;20681;-49
2022/09/12 05:55:33;;;;;;;7.00;4.53;;;;;;;11.73;100.00;98674.91;4935991;29;20258;-49
2022/09/12 05:58:00;;;;;;;6.47;4.90;;;;;;;11.75;100.00;98678.16;4935571;29;20224;-49
2022/09/12 06:00:27;;;;;;;7.17;4.70;;;;;;;11.81;100.00;98678.38;4940960;29;20231;-49
2022/09/12 06:02:54;;;;;;;6.87;5.13;;;;;;;11.78;100.00;98677.84;4939338;28;20784;-51
2022/09/12 06:05:20;;;;;;;5.47;4.70;;;;;;;11.79;100.00;98679.50;4942196;29;20708;-49
2022/09/12 06:07:48;;;;;;;6.03;5.30;;;;;;;11.80;100.00;98681.97;4940880;29;20299;-52
2022/09/12 06:10:16;;;;;;;9.70;6.73;;;;;;;11.87;100.00;98679.53;4941154;29;20315;-50
2022/09/12 06:12:43;;;;;;;7.07;5.40;;;;;;;11.87;100.00;98686.56;4939426;28;20234;-49
2022/09/12 06:15:10;;;;;;;5.93;4.90;;;;;;;11.87;100.00;98681.34;4938451;28;20314;-49
2022/09/12 06:17:37;;;;;;;7.33;4.60;;;;;;;11.91;100.00;98685.28;4940725;29;20613;-49
2022/09/12 06:20:04;;;;;;;8.77;5.60;;;;;;;11.93;100.00;98686.75;4934131;29;20634;-49
2022/09/12 06:22:31;;;;;;;10.13;5.83;;;;;;;11.96;100.00;98675.97;4939346;29;20905;-50
2022/09/12 06:24:59;;;;;;;8.37;5.73;;;;;;;12.03;100.00;98677.97;4938085;29;20325;-49
2022/09/12 06:27:25;;;;;;;9.60;6.13;;;;;;;12.07;100.00;98676.69;4940330;29;20633;-52
2022/09/12 06:29:52;;;;;;;8.20;5.70;;;;;;;12.09;100.00;98670.34;4938234;29;20226;-50
2022/09/12 06:32:18;;;;;;;7.60;5.93;;;;;;;12.18;100.00;98668.53;4939148;29;20305;-50
2022/09/12 06:34:47;;;;;;;6.83;5.50;;;;;;;12.20;100.00;98663.97;4939711;28;20315;-49
2022/09/12 06:37:14;;;;;;;7.80;4.63;;;;;;;12.28;100.00;98659.72;4937083;29;20591;-49
2022/09/12 06:39:40;;;;;;;7.27;4.87;;;;;;;12.35;100.00;98658.09;4943263;29;20238;-50
2022/09/12 06:42:08;;;;;;;6.27;4.60;;;;;;;12.43;100.00;98654.66;4939111;28;20258;-50
2022/09/12 06:44:36;;;;;;;6.23;4.53;;;;;;;12.53;100.00;98658.78;4938058;28;20258;-49
2022/09/12 06:47:02;;;;;;;6.33;4.53;;;;;;;12.64;100.00;98656.84;4937193;28;20262;-49
2022/09/12 06:49:29;;;;;;;6.63;4.63;;;;;;;12.71;100.00;98649.97;4942838;28;20272;-49
2022/09/12 06:51:56;;;;;;;6.73;4.60;;;;;;;12.85;100.00;98657.13;4936793;29;20249;-49
2022/09/12 06:54:25;;;;;;;5.97;4.50;;;;;;;12.93;100.00;98666.81;4940962;28;20269;-49
2022/09/12 06:56:52;;;;;;;5.77;4.73;;;;;;;13.07;100.00;98664.50;4940590;29;20257;-49
2022/09/12 06:59:20;;;;;;;7.77;4.80;;;;;;;13.16;100.00;98658.25;4936469;29;21026;-50
2022/09/12 07:02:06;;;;;;;5.07;4.23;;;;;;;13.32;100.00;98672.28;4933761;29;20242;-49
2022/09/12 07:04:35;;;;;;;5.77;4.40;;;;;;;13.46;100.00;98662.97;4938626;28;20239;-50
2022/09/12 07:07:02;;;;;;;7.50;5.10;;;;;;;13.59;100.00;98663.25;4926790;28;20223;-50
2022/09/12 07:09:29;;;;;;;7.87;5.90;;;;;;;13.76;100.00;98666.63;4939262;28;20235;-50
2022/09/12 07:11:56;;;;;;;7.10;4.57;;;;;;;13.92;98.51;98676.22;4940115;28;20246;-49
2022/09/12 07:14:24;;;;;;;8.90;5.30;;;;;;;14.07;97.62;98672.88;4938494;28;20249;-49
2022/09/12 07:16:51;;;;;;;6.67;5.67;;;;;;;14.22;97.08;98670.34;4938344;29;20234;-50
2022/09/12 07:19:18;;;;;;;7.30;5.50;;;;;;;14.30;96.88;98671.09;4934835;29;20240;-50
2022/09/12 07:21:44;;;;;;;7.10;6.37;;;;;;;14.38;97.32;98670.22;4935188;29;20320;-50
2022/09/12 07:24:11;;;;;;;10.33;6.37;;;;;;;14.52;97.30;98673.91;4933206;28;20725;-50
2022/09/12 07:26:40;;;;;;;12.00;7.40;;;;;;;14.63;95.05;98671.88;4937623;29;20318;-50
2022/09/12 07:29:12;;;;;;;9.67;7.07;;;;;;;14.72;94.58;98679.53;4936089;28;20240;-50
2022/09/12 07:31:40;;;;;;;8.90;7.17;;;;;;;14.77;94.61;98684.28;4938852;28;20239;-50
2022/09/12 07:34:07;;;;;;;10.20;7.83;;;;;;;14.81;94.85;98690.81;4933725;29;20363;-49
2022/09/12 07:36:34;;;;;;;11.37;8.40;;;;;;;14.83;93.96;98691.47;4934145;29;20295;-51
2022/09/12 07:39:01;;;;;;;11.43;9.30;;;;;;;14.75;94.73;98696.78;4934361;29;20286;-50
2022/09/12 07:41:30;;;;;;;10.73;8.50;;;;;;;14.84;96.02;98700.94;4939806;29;20323;-50
2022/09/12 07:43:59;;;;;;;13.43;8.83;;;;;;;14.94;94.12;98705.97;4935285;28;20231;-49
2022/09/12 07:46:28;;;;;;;14.63;9.93;;;;;;;15.01;92.69;98706.06;4937622;28;20246;-50
2022/09/12 07:48:58;;;;;;;13.80;8.97;;;;;;;14.86;94.03;98704.22;4934156;28;20240;-50
2022/09/12 07:51:27;;;;;;;11.87;9.10;;;;;;;14.87;94.15;98694.53;4941654;29;20236;-50
2022/09/12 07:53:55;;;;;;;13.50;9.03;;;;;;;14.95;93.76;98697.09;4926839;29;20237;-53
2022/09/12 07:56:21;;;;;;;14.83;8.30;;;;;;;14.95;93.06;98691.84;4940396;28;20573;-50
2022/09/12 07:58:48;;;;;;;15.00;9.17;;;;;;;14.93;92.74;98699.09;4938954;29;20283;-50
2022/09/12 08:01:17;;;;;;;12.77;8.70;;;;;;;14.91;93.00;98699.25;4934094;29;20236;-51
2022/09/12 08:03:46;;;;;;;10.20;8.80;;;;;;;15.02;92.80;98707.72;4933391;29;20227;-50
2022/09/12 08:06:16;;;;;;;11.30;8.47;;;;;;;15.10;92.30;98705.00;4933668;29;20249;-49
2022/09/12 08:08:43;;;;;;;12.47;9.30;;;;;;;15.16;92.69;98706.13;4936910;29;20235;-50
2022/09/12 08:11:29;;;;;;;12.50;9.30;;;;;;;15.27;91.37;98700.44;4937612;29;20237;-50
2022/09/12 08:13:57;;;;;;;15.43;8.17;;;;;;;15.39;91.86;98700.78;4934378;29;20716;-50
2022/09/12 08:16:26;;;;;;;9.23;7.57;;;;;;;15.45;89.26;98699.25;4935454;29;20276;-50
2022/09/12 08:18:53;;;;;;;10.10;8.27;;;;;;;15.41;90.18;98690.91;4938080;29;20245;-50
2022/09/12 08:21:22;;;;;;;9.33;7.83;;;;;;;15.57;90.07;98694.38;4933178;28;20666;-50
2022/09/12 08:23:52;;;;;;;9.27;7.03;;;;;;;15.67;88.39;98705.44;4940180;28;20323;-50
2022/09/12 08:26:19;;;;;;;12.37;8.10;;;;;;;15.76;87.57;98699.09;4934714;29;20283;-49
2022/09/12 08:28:46;;;;;;;10.40;7.83;;;;;;;15.80;88.17;98699.53;4936520;29;20603;-50
2022/09/12 08:31:35;;;;;;;10.17;6.63;;;;;;;15.94;87.15;98690.00;4933135;29;20318;-50
2022/09/12 08:34:02;;;;;;;9.43;7.83;;;;;;;15.93;87.50;98691.00;4934600;29;20240;-51
2022/09/12 08:36:30;;;;;;;8.97;7.40;;;;;;;16.07;85.97;98699.88;4937916;29;20752;-49
2022/09/12 08:38:59;;;;;;;10.43;7.00;;;;;;;16.14;85.29;98705.22;4938159;28;20259;-52
2022/09/12 08:41:29;;;;;;;10.93;7.70;;;;;;;16.04;85.23;98705.53;4938476;28;20839;-49
2022/09/12 08:44:21;;;;;;;12.10;7.63;;;;;;;16.24;85.80;98700.47;4932772;29;20684;-49
2022/09/12 08:47:07;;;;;;;9.33;6.70;;;;;;;16.35;86.08;98707.09;4934045;29;20239;-50
2022/09/12 08:49:39;;;;;;;9.60;7.53;;;;;;;16.36;84.09;98706.88;4930382;29;20228;-50
2022/09/12 08:52:15;;;;;;;10.90;8.37;;;;;;;16.36;84.49;98701.63;4933390;29;20291;-50
2022/09/12 08:54:44;;;;;;;10.40;7.57;;;;;;;16.46;84.33;98700.50;4939474;29;20236;-49
2022/09/12 08:57:11;;;;;;;8.47;6.80;;;;;;;16.52;85.28;98707.66;4933467;29;20247;-50
2022/09/12 08:59:41;;;;;;;10.57;7.33;;;;;;;16.66;83.67;98704.16;4934745;29;20239;-50
2022/09/12 09:02:50;;;;;;;12.53;7.23;;;;;;;16.72;82.78;98707.84;4934082;29;20303;-50
2022/09/12 09:05:22;;;;;;;11.10;6.53;;;;;;;16.76;82.42;98709.09;4933414;29;20585;-49
2022/09/12 09:08:29;;;;;;;9.00;6.53;;;;;;;16.82;81.05;98712.81;4937361;29;20367;-50
2022/09/12 09:11:05;;;;;;;11.00;6.80;;;;;;;17.02;81.75;98717.44;4898242;29;20227;-49
2022/09/12 09:16:31;;;;;;;9.97;6.77;;;;;;;17.07;80.27;98707.13;4930646;28;20604;-50
2022/09/12 09:19:04;;;;;;;8.83;6.93;;;;;;;17.18;79.87;98705.81;4935003;29;20589;-50
2022/09/12 09:21:37;;;;;;;7.87;6.63;;;;;;;17.32;78.17;98704.09;4936604;29;20833;-50
2022/09/12 09:24:10;;;;;;;7.57;6.70;;;;;;;17.34;77.41;98704.69;4932172;29;20245;-50
2022/09/12 09:26:44;;;;;;;10.47;6.23;;;;;;;17.32;77.85;98697.00;4932829;29;20235;-50
2022/09/12 09:29:17;;;;;;;6.93;5.67;;;;;;;17.42;78.48;98699.28;4935434;29;20326;-50
2022/09/12 09:31:48;;;;;;;8.53;5.43;;;;;;;17.59;77.41;98697.13;4935318;29;20287;-50
2022/09/12 09:34:19;;;;;;;7.73;5.50;;;;;;;17.70;76.56;98699.22;4933697;28;20312;-50
2022/09/12 09:36:51;;;;;;;8.40;6.47;;;;;;;17.78;76.07;98687.72;4941009;28;20281;-50
2022/09/12 09:39:29;;;;;;;7.83;5.80;;;;;;;17.96;76.05;98681.88;4931509;29;20232;-50
2022/09/12 09:42:09;;;;;;;6.70;5.93;;;;;;;18.00;76.70;98682.34;4932305;29;20686;-49
2022/09/12 09:44:36;;;;;;;8.33;5.90;;;;;;;18.11;74.75;98687.03;4925038;28;20317;-49
2022/09/12 09:47:04;;;;;;;10.43;6.23;;;;;;;18.13;74.02;98694.78;4924082;28;20234;-50
2022/09/12 09:49:33;;;;;;;6.60;5.40;;;;;;;18.17;73.91;98693.38;4938709;28;20325;-48
2022/09/12 09:52:01;;;;;;;7.77;5.60;;;;;;;18.20;73.94;98703.53;4935570;28;20236;-48
2022/09/12 09:54:35;;;;;;;7.20;5.87;;;;;;;18.18;74.35;98702.09;4939028;28;20281;-49
2022/09/12 09:57:03;;;;;;;7.13;5.57;;;;;;;18.20;73.72;98695.59;4937025;29;20237;-48
2022/09/12 09:59:32;;;;;;;7.87;6.50;;;;;;;18.20;73.01;98694.78;4939935;29;20260;-51
2022/09/12 10:02:02;;;;;;;5.30;4.80;;;;;;;18.26;73.57;98688.69;4933651;29;20238;-48
2022/09/12 10:04:31;;;;;;;8.60;5.40;;;;;;;18.36;72.26;98686.50;4941238;28;20262;-48
2022/09/12 10:07:00;;;;;;;6.40;4.80;;;;;;;18.38;72.46;98683.66;4938312;29;20241;-49
2022/09/12 10:09:31;;;;;;;7.17;5.23;;;;;;;18.46;72.74;98688.75;4941416;29;20231;-49
2022/09/12 10:12:00;;;;;;;8.67;6.40;;;;;;;18.53;73.32;98683.47;4937500;29;20301;-48
2022/09/12 10:14:35;;;;;;;8.83;6.37;;;;;;;18.62;72.32;98684.91;4940274;28;20281;-48
2022/09/12 10:17:21;;;;;;;6.10;5.50;;;;;;;18.78;72.54;98683.69;4934598;28;20326;-48
2022/09/12 10:19:48;;;;;;;6.67;5.90;;;;;;;18.92;71.08;98673.94;4939512;28;20599;-48
2022/09/12 10:22:19;;;;;;;8.43;5.47;;;;;;;18.83;71.38;98680.47;4937496;29;20238;-49
2022/09/12 10:24:51;;;;;;;5.97;4.90;;;;;;;18.85;71.25;98667.84;4939893;28;20642;-49
2022/09/12 10:27:21;;;;;;;6.67;5.20;;;;;;;18.98;71.24;98661.75;4935892;29;20230;-50
2022/09/12 10:29:53;;;;;;;10.77;5.00;;;;;;;19.06;71.05;98648.31;4942709;29;20234;-49
2022/09/12 10:32:27;;;;;;;6.30;5.17;;;;;;;19.29;67.95;98652.34;4934944;28;20309;-48
2022/09/12 10:34:57;;;;;;;5.97;4.60;;;;;;;19.32;68.76;98651.94;4938544;28;20239;-48
2022/09/12 10:37:29;;;;;;;5.13;4.43;;;;;;;19.37;68.79;98654.78;4936533;29;20242;-49
2022/09/12 10:39:59;;;;;;;6.27;4.20;;;;;;;19.60;68.11;98656.16;4936012;28;20239;-49
2022/09/12 10:42:45;;;;;;;5.27;4.80;;;;;;;19.69;67.05;98656.72;4938422;28;20232;-49
2022/09/12 10:45:23;;;;;;;8.23;5.40;;;;;;;19.65;68.26;98658.16;4934091;29;20235;-50
2022/09/12 10:47:51;;;;;;;5.20;4.70;;;;;;;19.72;67.74;98648.34;4937418;29;20246;-49
2022/09/12 10:50:25;;;;;;;5.67;4.43;;;;;;;19.77;65.86;98648.53;4928573;28;20232;-52
2022/09/12 10:52:51;;;;;;;5.63;4.67;;;;;;;19.81;67.12;98655.03;4937451;28;20245;-50
2022/09/12 10:55:41;;;;;;;8.77;4.47;;;;;;;19.98;67.80;98654.59;4931433;28;20356;-50
2022/09/12 10:58:30;;;;;;;8.83;5.03;;;;;;;19.95;68.18;98650.53;4933331;28;20791;-50
2022/09/12 11:01:05;;;;;;;6.03;4.80;;;;;;;20.11;67.60;98635.97;4933568;28;20257;-50
2022/09/12 11:03:48;;;;;;;7.80;5.17;;;;;;;20.18;67.48;98639.38;4937969;28;20695;-51
2022/09/12 11:06:22;;;;;;;5.50;5.00;;;;;;;20.42;66.99;98644.16;4933437;28;20333;-50
2022/09/12 11:09:05;;;;;;;6.27;5.23;;;;;;;20.53;65.86;98656.72;4937123;28;20285;-49
2022/09/12 11:11:46;;;;;;;6.60;4.40;;;;;;;20.48;64.66;98652.03;4922753;28;20250;-49
2022/09/12 11:14:28;;;;;;;5.73;4.90;;;;;;;20.50;64.63;98643.88;4933275;28;20269;-51
2022/09/12 11:17:03;;;;;;;5.87;4.67;;;;;;;20.67;62.96;98641.50;4931055;28;20255;-50
2022/09/12 11:19:49;;;;;;;7.60;4.67;;;;;;;20.67;64.09;98633.53;4936756;28;20238;-50
2022/09/12 11:22:28;;;;;;;5.97;4.60;;;;;;;20.77;64.18;98635.69;4933290;28;20572;-50
2022/09/12 11:25:23;;;;;;;9.63;4.70;;;;;;;20.97;63.25;98635.56;4934966;28;20252;-50
2022/09/12 11:28:14;;;;;;;4.73;4.23;;;;;;;21.06;64.07;98636.91;4936719;28;20238;-53
2022/09/12 11:30:55;;;;;;;5.30;4.43;;;;;;;21.09;62.99;98633.00;4932652;28;20247;-51
2022/09/12 11:33:37;;;;;;;6.17;4.43;;;;;;;21.30;62.38;98623.00;4933729;28;20234;-50
2022/09/12 11:36:08;;;;;;;5.83;4.40;;;;;;;21.26;61.43;98611.97;4932803;28;20282;-50
2022/09/12 11:38:51;;;;;;;5.97;4.53;;;;;;;21.46;61.63;98622.41;4939123;28;20230;-52
2022/09/12 11:41:25;;;;;;;4.93;3.90;;;;;;;21.47;60.31;98612.56;4936856;28;20257;-53
2022/09/12 11:44:00;;;;;;;5.70;3.97;;;;;;;21.57;60.07;98604.09;4938803;29;20350;-53
2022/09/12 11:46:31;;;;;;;3.90;3.50;;;;;;;21.64;58.43;98600.34;4934222;28;20331;-53
2022/09/12 11:49:04;;;;;;;3.40;3.10;;;;;;;21.70;57.11;98587.19;4934856;29;20222;-53
2022/09/12 11:51:37;;;;;;;3.80;3.50;;;;;;;21.73;58.42;98594.72;4938364;28;20298;-49